Date,TemperatureHighF,TemperatureAvgF,TemperatureLowF,DewpointHighF,DewpointAvgF,DewpointLowF,HumidityHigh,HumidityAvg,HumidityLow,PressureMaxIn,PressureMinIn,WindSpeedMaxMPH,WindSpeedAvgMPH,GustSpeedMaxMPH,PrecipitationSumIn
2014-1-1,57,48,34,51,42,31,92,80,69,30.30,30.07,3,0,7,0.00
2014-1-2,52,43,32,50,32,26,96,66,41,30.50,30.14,8,3,15,0.00
2014-1-3,56,40,27,39,28,22,91,65,30,30.51,30.19,2,0,5,0.00
2014-1-4,69,54,39,55,48,38,96,81,56,30.19,29.86,4,1,12,0.00
2014-1-5,55,45,34,54,34,18,99,66,40,30.46,29.83,10,4,14,0.00
2014-1-6,34,28,21,19,13,8,72,53,37,30.78,30.46,5,2,13,0.00
2014-1-7,22,20,18,14,14,13,80,77,71,30.69,30.66,0,0,0,0.00
2014-1-8,51,48,40,51,48,39,98,97,96,30.31,30.15,0,0,0,0.11
2014-1-9,65,56,50,61,55,50,100,97,83,30.21,30.03,1,0,2,0.00
2014-1-10,70,63,56,64,60,55,99,93,75,30.03,29.81,3,1,6,0.07
2014-1-11,73,57,44,55,43,29,98,66,21,30.17,29.89,3,1,4,0.00
2014-1-12,68,54,39,59,48,35,94,81,69,30.16,29.94,2,0,4,0.00
2014-1-13,67,57,38,60,40,25,98,60,21,30.19,29.90,6,2,15,0.00
2014-1-14,73,54,35,33,28,25,76,42,17,30.36,30.07,6,2,13,0.00
2014-1-15,64,50,36,30,26,21,64,40,24,30.49,30.22,5,2,8,0.00
2014-1-16,68,50,33,41,34,26,77,57,35,30.23,30.10,3,1,6,0.00
2014-1-17,64,50,39,35,27,22,77,43,22,30.39,30.23,4,1,8,0.00
2014-1-18,68,49,34,47,36,25,83,63,44,30.30,30.14,4,1,6,0.00
2014-1-19,72,54,43,44,36,27,86,53,19,30.38,30.16,3,1,5,0.00
2014-1-20,79,60,43,57,43,29,93,58,26,30.18,29.91,6,2,11,0.00
2014-1-21,63,52,36,31,27,22,70,40,21,30.44,30.19,6,2,13,0.00
2014-1-22,69,48,32,44,29,25,78,53,20,30.27,30.05,4,1,12,0.00
2014-1-23,51,41,27,47,37,25,93,87,71,30.68,30.07,8,4,16,0.02
2014-1-24,35,29,24,30,25,20,94,86,74,30.76,30.43,5,2,12,0.01
2014-1-25,65,43,26,37,31,24,93,68,31,30.44,30.08,3,1,5,0.04
2014-1-26,76,56,40,50,42,33,81,62,39,30.08,29.75,5,1,8,0.00
2014-1-27,57,48,37,46,27,13,82,45,33,30.25,29.83,9,4,16,0.00
2014-1-28,37,31,27,21,16,11,75,54,40,30.52,30.23,6,3,15,0.00
2014-1-29,49,34,25,21,16,12,66,48,28,30.56,30.32,2,0,4,0.00
2014-1-30,66,47,28,50,39,20,95,74,55,30.32,29.95,4,1,7,0.00
2014-1-31,78,62,48,61,56,47,98,81,49,30.00,29.81,2,1,7,0.00
2014-2-1,77,68,63,64,62,60,92,83,62,29.86,29.76,2,1,6,0.00
2014-2-2,66,44,35,63,40,31,94,86,80,30.26,29.84,8,4,18,0.01
2014-2-3,47,39,34,40,35,31,95,87,75,30.29,30.00,4,2,7,0.00
2014-2-4,68,49,40,51,43,39,98,83,37,30.10,29.90,3,1,6,0.16
2014-2-5,46,41,30,44,32,20,94,71,51,30.48,30.10,7,3,11,0.00
2014-2-6,31,28,26,20,19,17,75,68,63,30.55,30.42,6,3,9,0.00
2014-2-7,35,31,27,33,27,19,94,85,68,30.43,30.28,2,1,5,0.01
2014-2-8,67,46,35,45,39,33,96,79,42,30.31,30.10,3,1,6,0.00
2014-2-9,69,53,41,57,49,40,99,87,59,30.18,29.99,3,1,5,0.00
2014-2-10,58,44,34,57,42,31,98,92,85,30.20,30.02,6,3,14,0.00
2014-2-11,34,33,31,32,30,29,94,91,85,30.31,30.17,5,3,10,0.03
2014-2-12,57,44,33,39,34,28,86,68,47,30.30,30.12,4,2,11,0.00
2014-2-13,69,48,32,42,37,29,93,68,36,30.15,29.96,3,1,5,0.00
2014-2-14,86,60,42,54,42,32,97,60,18,30.12,29.88,6,2,10,0.00
2014-2-15,77,59,46,58,40,27,91,50,30,30.20,30.03,3,1,5,0.00
2014-2-16,73,64,60,64,61,58,98,91,73,30.08,29.96,1,0,5,0.00
2014-2-17,78,66,59,65,56,40,99,75,33,30.13,29.97,5,1,5,0.01
2014-2-18,77,66,59,66,55,39,94,68,42,30.12,29.92,2,0,4,0.00
2014-2-19,77,36,57,66,-9,-100,99,53,67,29.96,29.74,2,-430,4,0.00
2014-2-20,-200,0,200,-100,-100,-100,0,0,100,30.11,29.75,0,-999,0,0.00
2014-2-21,70,32,49,33,-32,-100,50,17,23,30.25,30.03,2,-476,4,0.00
2014-2-22,71,58,42,60,50,31,89,74,52,30.08,29.91,3,1,6,0.00
2014-2-23,84,69,61,66,62,52,98,79,51,30.04,29.90,3,1,7,0.00
2014-2-24,78,65,56,63,56,49,90,72,58,30.10,29.98,3,1,6,0.00
2014-2-25,78,66,53,67,63,51,97,89,68,30.04,29.90,4,1,8,0.01
2014-2-26,53,40,30,51,37,29,95,90,82,30.26,30.01,8,3,22,0.11
2014-2-27,58,42,28,37,32,26,96,70,41,30.28,29.99,3,1,10,0.00
2014-2-28,78,57,44,55,48,37,94,74,44,29.99,29.82,4,1,6,0.00
2014-3-1,84,65,48,68,60,46,98,84,58,30.04,29.91,3,1,6,0.00
2014-3-2,71,53,29,70,50,24,97,91,82,30.23,29.90,8,3,16,0.02
2014-3-3,46,34,24,32,25,18,90,71,47,30.43,30.23,8,4,16,0.05
2014-3-4,47,38,32,39,34,30,95,85,72,30.32,30.09,3,1,6,0.10
2014-3-5,60,47,39,48,41,36,92,82,64,30.20,30.00,2,0,3,0.00
2014-3-6,62,49,42,44,41,37,92,75,47,30.30,30.10,5,2,9,0.00
2014-3-7,71,54,38,51,45,36,96,74,45,30.12,29.90,3,1,5,0.00
2014-3-8,60,53,43,59,51,40,97,94,88,30.26,29.92,6,2,13,0.60
2014-3-9,52,47,42,48,42,36,90,82,75,30.38,30.24,5,2,10,0.00
2014-3-10,67,56,48,59,53,46,98,90,71,30.28,29.93,2,0,4,0.20
2014-3-11,80,64,53,60,55,52,98,78,44,29.98,29.65,4,2,10,0.00
2014-3-12,66,64,60,55,52,44,77,66,46,29.87,29.75,6,2,9,0.00
2014-3-14,76,65,48,61,57,46,96,76,56,30.12,29.97,3,1,12,0.00
2014-3-15,79,67,61,66,62,57,98,85,55,30.00,29.71,3,0,5,0.04
2014-3-16,65,59,48,61,47,34,95,67,41,30.07,29.74,9,5,16,0.00
2014-3-17,72,53,38,34,31,27,70,46,20,30.09,29.81,6,2,11,0.00
2014-3-18,86,62,42,58,45,32,86,58,25,29.85,29.70,3,1,6,0.00
2014-3-19,73,61,52,57,42,33,93,53,31,30.21,29.85,6,2,13,0.00
2014-3-20,78,60,44,45,41,37,77,52,28,30.27,30.06,3,1,6,0.00
2014-3-21,81,66,52,63,57,46,96,75,52,30.07,29.85,4,1,7,0.00
2014-3-22,78,70,64,69,65,62,98,87,71,30.00,29.90,1,0,3,0.00
2014-3-23,70,58,47,67,48,39,92,72,58,30.27,30.00,9,4,13,0.00
2014-3-24,61,52,48,52,46,40,98,81,60,30.25,30.07,3,1,5,0.26
2014-3-25,68,57,47,50,46,43,98,72,40,30.35,30.17,3,1,8,0.01
2014-3-26,64,58,52,58,52,43,94,83,63,30.24,29.99,5,1,6,0.07
2014-3-27,83,68,60,70,64,58,100,90,63,29.99,29.76,2,1,5,0.07
2014-3-28,93,75,64,68,56,29,98,64,12,29.99,29.72,7,2,11,0.00
2014-3-29,81,66,53,58,45,32,80,51,20,30.27,29.99,5,2,9,0.00
2014-3-30,82,64,48,55,47,39,77,56,33,30.24,30.01,3,1,8,0.00
2014-3-31,85,70,61,65,61,54,96,76,48,30.05,29.85,3,1,8,0.00
2014-4-1,86,73,66,70,67,63,97,82,56,29.99,29.83,3,1,5,0.00
2014-4-2,86,74,69,72,69,68,98,85,61,29.89,29.69,2,1,5,0.00
2014-4-3,81,74,69,71,69,67,96,86,68,29.80,29.67,2,1,4,0.00
2014-4-4,73,64,56,38,36,34,47,37,24,30.13,30.00,6,3,17,0.00
2014-4-5,62,58,55,50,42,38,80,57,46,30.08,29.88,3,1,5,0.00
2014-4-6,60,56,52,55,52,49,97,87,68,29.90,29.75,5,2,11,0.04
2014-4-7,76,56,45,59,50,43,97,82,44,30.09,29.84,5,1,8,0.16
2014-4-8,78,62,49,48,39,31,89,49,19,30.25,30.09,7,3,18,0.00
2014-4-9,87,65,44,55,45,38,81,53,21,30.31,30.08,3,1,6,0.00
2014-4-10,90,74,54,62,57,51,91,59,30,30.16,29.92,3,2,10,0.00
2014-4-11,89,71,57,64,60,56,97,72,37,30.05,29.90,3,1,6,0.00
2014-4-12,88,73,63,68,64,61,96,77,47,30.00,29.81,3,1,6,0.00
2014-4-13,83,74,68,71,67,64,93,81,62,29.87,29.65,2,1,5,0.00
2014-4-14,72,61,44,70,52,36,94,74,44,30.26,29.68,9,4,16,0.11
2014-4-15,68,52,38,36,28,22,71,44,20,30.42,30.17,3,1,8,0.00
2014-4-16,76,56,38,51,42,31,82,60,36,30.19,29.95,3,1,8,0.00
2014-4-17,67,60,54,62,57,50,98,89,76,30.19,30.00,1,0,5,0.10
2014-4-18,80,66,58,62,59,56,99,81,50,30.22,30.09,2,0,4,0.00
2014-4-19,80,66,52,60,57,51,99,73,49,30.19,30.05,3,1,4,0.00
2014-4-20,75,68,64,66,63,58,94,84,71,30.16,30.02,2,0,3,0.00
2014-4-21,84,72,65,69,65,62,94,81,59,30.09,29.94,2,0,3,0.00
2014-4-22,90,77,61,66,61,58,98,63,35,30.04,29.89,3,1,7,0.00
2014-4-23,89,74,60,69,64,58,98,73,48,29.95,29.74,3,1,8,0.00
2014-4-24,90,74,64,70,66,62,95,78,48,29.92,29.77,2,0,6,0.00
2014-4-25,90,75,65,69,66,61,96,75,43,30.04,29.85,2,1,5,0.00
2014-4-26,87,74,67,71,68,64,95,82,57,29.90,29.64,2,1,5,0.00
2014-4-27,97,80,72,73,66,44,94,67,18,29.67,29.45,3,1,5,0.00
2014-4-28,96,79,60,67,40,24,84,31,8,29.74,29.55,5,2,9,0.00
2014-4-29,84,72,62,54,40,26,72,35,16,29.98,29.64,7,3,13,0.00
2014-4-30,77,65,52,40,37,29,62,36,24,30.16,29.98,6,2,10,0.00
2014-5-1,79,64,50,42,38,28,68,42,17,30.21,30.03,3,1,7,0.00
2014-5-2,81,66,51,42,39,34,66,40,20,30.12,29.98,3,1,8,0.00
2014-5-3,92,72,54,46,40,34,59,35,13,30.12,30.00,3,1,9,0.00
2014-5-4,93,74,55,49,42,35,55,34,18,30.13,29.95,3,1,8,0.00
2014-5-5,93,73,56,65,59,48,97,64,35,30.03,29.81,3,1,6,0.00
2014-5-6,89,73,62,70,64,58,91,76,50,29.90,29.73,3,1,6,0.00
2014-5-7,88,75,70,70,67,65,88,78,54,29.87,29.76,3,1,5,0.00
2014-5-8,87,76,73,76,72,68,93,86,67,29.85,29.74,3,1,5,0.07
2014-5-9,85,75,69,74,70,60,96,86,52,29.99,29.82,11,1,13,0.27
2014-5-10,88,80,58,70,68,57,98,67,52,29.92,29.77,2,1,3,0.00
2014-5-11,91,78,69,73,70,65,96,78,54,29.84,29.68,3,1,5,0.00
2014-5-12,84,77,65,76,73,64,97,88,75,29.94,29.74,6,1,6,2.06
2014-5-13,65,59,55,64,58,54,98,96,87,30.17,29.86,6,3,12,0.60
2014-5-14,74,66,51,50,43,36,86,47,27,30.33,30.20,7,3,15,0.03
2014-5-15,83,64,46,48,43,37,87,54,22,30.35,30.16,3,1,7,0.00
2014-5-16,88,71,57,56,46,37,73,46,20,30.20,30.00,4,2,9,0.00
2014-5-17,89,71,57,64,58,53,92,67,38,30.04,29.92,3,1,6,0.00
2014-5-18,86,72,62,65,62,60,95,72,46,30.08,29.98,3,1,6,0.00
2014-5-19,88,74,65,67,64,60,94,72,46,30.07,29.96,3,1,6,0.00
2014-5-20,90,76,65,68,66,63,94,73,45,30.07,29.97,3,1,8,0.00
2014-5-21,90,78,70,71,67,62,93,71,49,30.08,29.96,3,2,7,0.00
2014-5-22,88,76,70,73,69,65,93,78,58,30.08,29.98,3,1,8,0.00
2014-5-23,83,75,71,73,69,67,93,83,64,30.08,29.95,2,1,3,0.01
2014-5-24,83,74,70,77,71,68,95,89,76,30.04,29.88,2,1,6,0.29
2014-5-25,86,76,70,74,69,66,96,80,58,30.05,29.88,3,1,7,0.01
2014-5-26,72,67,63,70,66,62,99,95,86,30.08,29.88,6,0,7,1.54
2014-5-27,77,70,64,74,69,64,99,96,86,30.01,29.85,3,0,4,0.38
2014-5-28,85,75,67,71,67,63,100,79,52,29.93,29.85,5,2,10,0.01
2014-5-29,89,75,65,68,65,62,94,75,46,29.89,29.81,1,0,2,0.00
2014-6-1,92,85,76,73,71,69,83,65,50,29.94,29.85,2,1,3,0.00
2014-6-2,92,80,72,74,72,69,95,76,53,29.97,29.87,2,1,4,0.00
2014-6-3,93,81,72,75,72,70,95,77,54,30.00,29.89,2,0,4,0.00
2014-6-4,92,80,73,75,72,70,93,77,55,29.93,29.81,2,1,7,0.00
2014-6-5,92,81,74,76,72,70,92,76,58,29.87,29.79,2,1,8,0.00
2014-6-6,93,81,74,75,72,69,93,76,51,29.93,29.83,3,1,5,0.00
2014-6-7,94,82,73,75,72,70,95,75,51,29.97,29.81,3,1,5,0.00
2014-6-8,89,79,74,78,73,70,97,82,56,29.97,29.76,3,1,5,0.22
2014-6-9,91,80,73,76,73,71,98,81,58,29.89,29.75,3,1,6,0.29
2014-6-10,93,78,64,72,62,54,97,63,28,29.94,29.81,4,1,8,0.00
2014-6-11,98,85,66,75,70,62,87,63,43,29.91,29.75,2,1,6,0.00
2014-6-12,98,83,68,79,74,65,95,76,44,30.00,29.76,7,1,9,0.05
2014-6-13,92,78,66,76,70,64,95,78,57,29.99,29.87,2,1,3,0.01
2014-6-14,92,80,74,74,73,70,97,79,56,29.99,29.81,3,1,4,0.00
2014-6-15,95,83,76,74,73,70,91,73,47,29.95,29.84,3,1,7,0.00
2014-6-16,96,83,75,76,73,70,95,75,45,30.02,29.89,3,1,7,0.00
2014-6-17,96,83,77,74,72,68,89,71,43,30.01,29.89,3,2,6,0.00
2014-6-18,96,83,77,75,73,70,90,74,45,30.00,29.87,3,2,5,0.00
2014-6-19,90,82,76,75,72,70,89,73,54,30.03,29.94,2,1,8,0.00
2014-6-20,93,81,73,75,72,69,94,75,48,30.08,29.96,2,0,6,0.00
2014-6-21,93,82,74,74,72,69,95,74,46,30.03,29.87,2,0,4,0.00
2014-6-22,88,80,75,74,72,70,95,78,59,29.94,29.82,2,0,5,0.04
2014-6-23,95,82,75,78,74,71,94,78,52,29.95,29.83,3,0,5,0.00
2014-6-24,94,82,76,75,73,69,92,76,49,30.04,29.94,3,1,4,0.00
2014-6-25,91,77,70,76,72,69,98,87,54,30.08,29.93,3,0,4,0.24
2014-6-26,90,77,70,78,72,69,98,88,62,30.01,29.85,2,0,4,1.06
2014-6-27,90,79,74,78,74,71,94,84,64,29.92,29.80,3,1,5,0.05
2014-6-28,93,82,76,77,75,73,92,79,57,29.96,29.83,3,2,7,0.00
2014-6-29,96,83,75,78,75,73,95,79,54,30.01,29.92,3,1,7,0.00
2014-6-30,96,83,76,76,74,71,92,76,46,30.01,29.86,3,1,7,0.00
2014-7-1,96,83,74,74,72,68,95,71,43,29.99,29.88,3,1,7,0.00
2014-7-2,97,84,72,74,72,67,95,71,40,30.06,29.97,2,0,5,0.00
2014-7-3,97,82,71,73,70,66,97,70,38,30.14,30.02,3,0,4,0.00
2014-7-4,95,78,70,74,70,66,98,78,46,30.19,30.09,3,0,4,0.92
2014-7-5,93,78,69,75,71,68,100,81,52,30.20,30.05,2,0,6,0.00
2014-7-6,95,81,69,74,71,68,99,75,42,30.09,29.93,2,1,3,0.00
2014-7-7,96,82,70,73,70,65,94,69,39,30.04,29.92,2,1,4,0.00
2014-7-8,98,83,72,74,70,64,97,69,40,30.05,29.95,2,1,5,0.00
2014-7-9,97,86,73,75,69,65,83,59,37,30.07,29.94,2,1,5,0.00
2014-7-10,93,79,69,73,70,65,97,75,41,30.08,29.97,3,1,5,0.00